sensor_id;sensor_type;location;lat;lon;timestamp;temperature;humidity
78611;SHT30;67932;50.474;4.436;2023-06-26T00:00:58;21.86;62.46
78611;SHT30;67932;50.474;4.436;2023-06-26T00:03:24;21.85;62.58
78611;SHT30;67932;50.474;4.436;2023-06-26T00:05:50;21.58;61.44
78611;SHT30;67932;50.474;4.436;2023-06-26T00:08:16;21.38;59.34
78611;SHT30;67932;50.474;4.436;2023-06-26T00:10:43;21.38;59.26
78611;SHT30;67932;50.474;4.436;2023-06-26T00:13:09;21.55;59.05
78611;SHT30;67932;50.474;4.436;2023-06-26T00:15:38;21.43;59.88
78611;SHT30;67932;50.474;4.436;2023-06-26T00:18:05;21.45;60.33
78611;SHT30;67932;50.474;4.436;2023-06-26T00:20:31;21.34;61.25
78611;SHT30;67932;50.474;4.436;2023-06-26T00:23:00;21.32;61.19
78611;SHT30;67932;50.474;4.436;2023-06-26T00:25:26;21.12;61.85
78611;SHT30;67932;50.474;4.436;2023-06-26T00:27:52;21.15;62.28
78611;SHT30;67932;50.474;4.436;2023-06-26T00:30:18;21.14;62.87
78611;SHT30;67932;50.474;4.436;2023-06-26T00:32:45;21.22;63.15
78611;SHT30;67932;50.474;4.436;2023-06-26T00:35:11;21.14;63.80
78611;SHT30;67932;50.474;4.436;2023-06-26T00:37:37;21.09;64.46
78611;SHT30;67932;50.474;4.436;2023-06-26T00:40:04;21.04;65.48
78611;SHT30;67932;50.474;4.436;2023-06-26T00:42:31;20.92;66.58
78611;SHT30;67932;50.474;4.436;2023-06-26T00:44:57;20.87;67.18
78611;SHT30;67932;50.474;4.436;2023-06-26T00:47:24;20.77;67.61
78611;SHT30;67932;50.474;4.436;2023-06-26T00:49:51;20.68;67.58
78611;SHT30;67932;50.474;4.436;2023-06-26T00:52:18;20.64;67.38
78611;SHT30;67932;50.474;4.436;2023-06-26T00:54:44;20.64;67.17
78611;SHT30;67932;50.474;4.436;2023-06-26T00:57:11;20.50;67.24
78611;SHT30;67932;50.474;4.436;2023-06-26T00:59:37;20.47;66.58
78611;SHT30;67932;50.474;4.436;2023-06-26T01:02:04;20.43;66.07
78611;SHT30;67932;50.474;4.436;2023-06-26T01:04:31;20.34;66.01
78611;SHT30;67932;50.474;4.436;2023-06-26T01:06:59;20.27;66.20
78611;SHT30;67932;50.474;4.436;2023-06-26T01:09:27;20.33;65.77
78611;SHT30;67932;50.474;4.436;2023-06-26T01:11:53;20.34;65.65
78611;SHT30;67932;50.474;4.436;2023-06-26T01:14:20;20.22;66.52
78611;SHT30;67932;50.474;4.436;2023-06-26T01:16:47;20.20;66.93
78611;SHT30;67932;50.474;4.436;2023-06-26T01:19:23;20.09;67.32
78611;SHT30;67932;50.474;4.436;2023-06-26T01:22:00;20.06;67.15
78611;SHT30;67932;50.474;4.436;2023-06-26T01:24:34;20.00;67.40
78611;SHT30;67932;50.474;4.436;2023-06-26T01:27:03;19.99;67.38
78611;SHT30;67932;50.474;4.436;2023-06-26T01:29:32;19.78;67.72
78611;SHT30;67932;50.474;4.436;2023-06-26T01:32:00;19.73;67.96
78611;SHT30;67932;50.474;4.436;2023-06-26T01:34:27;19.75;67.67
78611;SHT30;67932;50.474;4.436;2023-06-26T01:36:53;19.78;67.65
78611;SHT30;67932;50.474;4.436;2023-06-26T01:39:20;19.75;67.78
78611;SHT30;67932;50.474;4.436;2023-06-26T01:41:46;19.69;67.95
78611;SHT30;67932;50.474;4.436;2023-06-26T01:44:25;19.55;68.60
78611;SHT30;67932;50.474;4.436;2023-06-26T01:47:02;19.63;68.52
78611;SHT30;67932;50.474;4.436;2023-06-26T01:55:03;19.42;69.99
78611;SHT30;67932;50.474;4.436;2023-06-26T01:57:31;19.35;70.93
78611;SHT30;67932;50.474;4.436;2023-06-26T01:59:58;19.22;71.91
78611;SHT30;67932;50.474;4.436;2023-06-26T02:02:25;19.14;72.64
78611;SHT30;67932;50.474;4.436;2023-06-26T02:04:52;19.07;73.01
78611;SHT30;67932;50.474;4.436;2023-06-26T02:07:18;19.03;73.42
78611;SHT30;67932;50.474;4.436;2023-06-26T02:09:44;19.00;73.87
78611;SHT30;67932;50.474;4.436;2023-06-26T02:12:11;19.03;73.60
78611;SHT30;67932;50.474;4.436;2023-06-26T02:14:37;18.87;74.24
78611;SHT30;67932;50.474;4.436;2023-06-26T02:17:04;18.84;74.42
78611;SHT30;67932;50.474;4.436;2023-06-26T02:19:30;18.94;74.28
78611;SHT30;67932;50.474;4.436;2023-06-26T02:21:56;18.84;74.69
78611;SHT30;67932;50.474;4.436;2023-06-26T02:24:22;18.77;75.06
78611;SHT30;67932;50.474;4.436;2023-06-26T02:26:49;18.78;75.09
78611;SHT30;67932;50.474;4.436;2023-06-26T02:29:15;18.73;75.52
78611;SHT30;67932;50.474;4.436;2023-06-26T02:31:42;18.81;75.18
78611;SHT30;67932;50.474;4.436;2023-06-26T02:34:08;18.73;75.60
78611;SHT30;67932;50.474;4.436;2023-06-26T02:36:34;18.64;76.21
78611;SHT30;67932;50.474;4.436;2023-06-26T02:39:00;18.75;75.93
78611;SHT30;67932;50.474;4.436;2023-06-26T02:41:27;18.50;76.50
78611;SHT30;67932;50.474;4.436;2023-06-26T02:43:53;18.46;76.87
78611;SHT30;67932;50.474;4.436;2023-06-26T02:46:19;18.46;77.06
78611;SHT30;67932;50.474;4.436;2023-06-26T02:48:45;18.52;76.87
78611;SHT30;67932;50.474;4.436;2023-06-26T02:51:12;18.46;77.14
78611;SHT30;67932;50.474;4.436;2023-06-26T02:53:38;18.23;78.10
78611;SHT30;67932;50.474;4.436;2023-06-26T02:56:04;18.25;78.06
78611;SHT30;67932;50.474;4.436;2023-06-26T02:58:31;18.34;77.85
78611;SHT30;67932;50.474;4.436;2023-06-26T03:00:57;18.32;77.88
78611;SHT30;67932;50.474;4.436;2023-06-26T03:03:23;18.22;78.41
78611;SHT30;67932;50.474;4.436;2023-06-26T03:05:49;18.42;77.82
78611;SHT30;67932;50.474;4.436;2023-06-26T03:08:16;18.22;78.67
78611;SHT30;67932;50.474;4.436;2023-06-26T03:10:42;18.16;78.87
78611;SHT30;67932;50.474;4.436;2023-06-26T03:13:08;18.14;78.92
78611;SHT30;67932;50.474;4.436;2023-06-26T03:15:35;18.19;78.95
78611;SHT30;67932;50.474;4.436;2023-06-26T03:18:01;18.10;79.40
78611;SHT30;67932;50.474;4.436;2023-06-26T03:20:28;18.00;79.70
78611;SHT30;67932;50.474;4.436;2023-06-26T03:22:54;18.08;79.67
78611;SHT30;67932;50.474;4.436;2023-06-26T03:25:20;18.02;79.87
78611;SHT30;67932;50.474;4.436;2023-06-26T03:27:46;18.02;79.93
78611;SHT30;67932;50.474;4.436;2023-06-26T03:30:13;18.03;79.97
78611;SHT30;67932;50.474;4.436;2023-06-26T03:32:40;18.06;79.92
78611;SHT30;67932;50.474;4.436;2023-06-26T03:35:07;17.98;80.18
78611;SHT30;67932;50.474;4.436;2023-06-26T03:37:33;17.75;80.91
78611;SHT30;67932;50.474;4.436;2023-06-26T03:39:59;17.78;81.11
78611;SHT30;67932;50.474;4.436;2023-06-26T03:42:26;17.69;81.25
78611;SHT30;67932;50.474;4.436;2023-06-26T03:44:52;17.76;81.07
78611;SHT30;67932;50.474;4.436;2023-06-26T03:47:18;17.75;81.28
78611;SHT30;67932;50.474;4.436;2023-06-26T03:49:44;17.64;81.56
78611;SHT30;67932;50.474;4.436;2023-06-26T03:52:10;17.75;81.37
78611;SHT30;67932;50.474;4.436;2023-06-26T03:54:37;17.59;81.67
78611;SHT30;67932;50.474;4.436;2023-06-26T03:57:03;17.64;81.57
78611;SHT30;67932;50.474;4.436;2023-06-26T03:59:29;17.49;82.02
78611;SHT30;67932;50.474;4.436;2023-06-26T04:01:56;17.42;82.41
78611;SHT30;67932;50.474;4.436;2023-06-26T04:04:22;17.51;81.96
78611;SHT30;67932;50.474;4.436;2023-06-26T04:06:48;17.44;82.03
78611;SHT30;67932;50.474;4.436;2023-06-26T04:09:15;17.44;82.06
78611;SHT30;67932;50.474;4.436;2023-06-26T04:11:41;17.28;82.68
78611;SHT30;67932;50.474;4.436;2023-06-26T04:14:07;17.46;81.86
78611;SHT30;67932;50.474;4.436;2023-06-26T04:16:33;17.36;81.94
78611;SHT30;67932;50.474;4.436;2023-06-26T04:19:00;17.44;81.43
78611;SHT30;67932;50.474;4.436;2023-06-26T04:21:28;17.14;82.38
78611;SHT30;67932;50.474;4.436;2023-06-26T04:23:54;17.15;82.23
78611;SHT30;67932;50.474;4.436;2023-06-26T04:26:21;17.13;82.59
78611;SHT30;67932;50.474;4.436;2023-06-26T04:28:47;17.07;82.64
78611;SHT30;67932;50.474;4.436;2023-06-26T04:31:14;17.20;82.28
78611;SHT30;67932;50.474;4.436;2023-06-26T04:33:40;17.18;82.21
78611;SHT30;67932;50.474;4.436;2023-06-26T04:36:07;17.18;82.23
78611;SHT30;67932;50.474;4.436;2023-06-26T04:38:33;17.06;82.63
78611;SHT30;67932;50.474;4.436;2023-06-26T04:41:00;17.15;81.85
78611;SHT30;67932;50.474;4.436;2023-06-26T04:43:27;17.14;82.07
78611;SHT30;67932;50.474;4.436;2023-06-26T04:45:54;16.91;82.62
78611;SHT30;67932;50.474;4.436;2023-06-26T04:48:20;16.99;82.34
78611;SHT30;67932;50.474;4.436;2023-06-26T04:50:47;17.11;81.59
78611;SHT30;67932;50.474;4.436;2023-06-26T04:53:20;17.10;81.62
78611;SHT30;67932;50.474;4.436;2023-06-26T04:55:47;17.04;81.12
78611;SHT30;67932;50.474;4.436;2023-06-26T04:58:13;17.03;81.64
78611;SHT30;67932;50.474;4.436;2023-06-26T05:00:39;17.07;81.16
78611;SHT30;67932;50.474;4.436;2023-06-26T05:03:11;17.24;80.52
78611;SHT30;67932;50.474;4.436;2023-06-26T05:05:37;17.20;80.02
78611;SHT30;67932;50.474;4.436;2023-06-26T05:08:16;17.14;80.20
78611;SHT30;67932;50.474;4.436;2023-06-26T05:10:43;17.01;80.12
78611;SHT30;67932;50.474;4.436;2023-06-26T05:13:10;17.04;80.19
78611;SHT30;67932;50.474;4.436;2023-06-26T05:15:36;17.07;80.03
78611;SHT30;67932;50.474;4.436;2023-06-26T05:18:03;17.15;79.15
78611;SHT30;67932;50.474;4.436;2023-06-26T05:20:31;17.14;79.24
78611;SHT30;67932;50.474;4.436;2023-06-26T05:22:57;17.11;79.32
78611;SHT30;67932;50.474;4.436;2023-06-26T05:25:24;17.06;78.92
78611;SHT30;67932;50.474;4.436;2023-06-26T05:27:53;17.03;79.17
78611;SHT30;67932;50.474;4.436;2023-06-26T05:30:19;17.07;78.65
78611;SHT30;67932;50.474;4.436;2023-06-26T05:32:47;17.25;78.23
78611;SHT30;67932;50.474;4.436;2023-06-26T05:35:14;17.24;77.64
78611;SHT30;67932;50.474;4.436;2023-06-26T05:37:42;17.24;77.44
78611;SHT30;67932;50.474;4.436;2023-06-26T05:40:12;17.41;77.20
78611;SHT30;67932;50.474;4.436;2023-06-26T05:42:40;17.36;76.96
78611;SHT30;67932;50.474;4.436;2023-06-26T05:45:32;17.35;76.99
78611;SHT30;67932;50.474;4.436;2023-06-26T05:48:01;17.21;77.27
78611;SHT30;67932;50.474;4.436;2023-06-26T05:50:27;17.23;77.38
78611;SHT30;67932;50.474;4.436;2023-06-26T05:52:54;17.39;76.55
78611;SHT30;67932;50.474;4.436;2023-06-26T05:55:25;17.54;75.77
78611;SHT30;67932;50.474;4.436;2023-06-26T05:57:53;17.55;75.39
78611;SHT30;67932;50.474;4.436;2023-06-26T06:00:20;17.51;74.85
78611;SHT30;67932;50.474;4.436;2023-06-26T06:02:47;17.52;75.13
78611;SHT30;67932;50.474;4.436;2023-06-26T06:05:14;17.75;73.98
78611;SHT30;67932;50.474;4.436;2023-06-26T06:07:41;17.36;74.53
78611;SHT30;67932;50.474;4.436;2023-06-26T06:10:07;17.55;73.83
78611;SHT30;67932;50.474;4.436;2023-06-26T06:12:34;17.58;72.74
78611;SHT30;67932;50.474;4.436;2023-06-26T06:15:06;17.81;72.90
78611;SHT30;67932;50.474;4.436;2023-06-26T06:17:32;18.05;71.19
78611;SHT30;67932;50.474;4.436;2023-06-26T06:19:58;17.82;71.66
78611;SHT30;67932;50.474;4.436;2023-06-26T06:22:25;17.92;71.50
78611;SHT30;67932;50.474;4.436;2023-06-26T06:24:52;17.88;70.75
78611;SHT30;67932;50.474;4.436;2023-06-26T06:27:18;17.66;71.10
78611;SHT30;67932;50.474;4.436;2023-06-26T06:29:44;17.76;71.16
78611;SHT30;67932;50.474;4.436;2023-06-26T06:32:10;18.09;70.65
78611;SHT30;67932;50.474;4.436;2023-06-26T06:34:37;18.08;70.21
78611;SHT30;67932;50.474;4.436;2023-06-26T06:37:04;18.10;69.69
78611;SHT30;67932;50.474;4.436;2023-06-26T06:39:30;18.17;68.95
78611;SHT30;67932;50.474;4.436;2023-06-26T06:41:56;18.05;69.18
78611;SHT30;67932;50.474;4.436;2023-06-26T06:44:23;18.05;68.33
78611;SHT30;67932;50.474;4.436;2023-06-26T06:46:49;18.06;68.81
78611;SHT30;67932;50.474;4.436;2023-06-26T06:49:15;18.28;68.35
78611;SHT30;67932;50.474;4.436;2023-06-26T06:51:42;18.32;67.97
78611;SHT30;67932;50.474;4.436;2023-06-26T06:54:08;18.25;67.35
78611;SHT30;67932;50.474;4.436;2023-06-26T06:56:34;18.37;67.36
78611;SHT30;67932;50.474;4.436;2023-06-26T06:59:00;18.34;67.40
78611;SHT30;67932;50.474;4.436;2023-06-26T07:01:27;18.19;67.28
78611;SHT30;67932;50.474;4.436;2023-06-26T07:03:53;18.13;67.38
78611;SHT30;67932;50.474;4.436;2023-06-26T07:06:19;18.17;68.01
78611;SHT30;67932;50.474;4.436;2023-06-26T07:08:45;18.28;67.36
78611;SHT30;67932;50.474;4.436;2023-06-26T07:11:12;18.26;67.30
78611;SHT30;67932;50.474;4.436;2023-06-26T07:13:38;18.59;66.43
78611;SHT30;67932;50.474;4.436;2023-06-26T07:16:04;18.60;65.86
78611;SHT30;67932;50.474;4.436;2023-06-26T07:18:31;18.43;66.20
78611;SHT30;67932;50.474;4.436;2023-06-26T07:21:00;18.53;65.89
78611;SHT30;67932;50.474;4.436;2023-06-26T07:23:26;18.37;66.50
78611;SHT30;67932;50.474;4.436;2023-06-26T07:25:53;18.50;65.99
78611;SHT30;67932;50.474;4.436;2023-06-26T07:28:19;18.74;65.46
78611;SHT30;67932;50.474;4.436;2023-06-26T07:30:45;18.84;65.68
78611;SHT30;67932;50.474;4.436;2023-06-26T07:33:11;18.77;64.53
78611;SHT30;67932;50.474;4.436;2023-06-26T07:35:38;18.87;64.04
78611;SHT30;67932;50.474;4.436;2023-06-26T07:38:05;18.78;64.34
78611;SHT30;67932;50.474;4.436;2023-06-26T07:40:31;19.00;63.43
78611;SHT30;67932;50.474;4.436;2023-06-26T07:42:57;19.04;64.06
78611;SHT30;67932;50.474;4.436;2023-06-26T07:45:24;18.93;63.87
78611;SHT30;67932;50.474;4.436;2023-06-26T07:47:51;18.73;63.63
78611;SHT30;67932;50.474;4.436;2023-06-26T07:50:17;18.67;64.23
78611;SHT30;67932;50.474;4.436;2023-06-26T07:52:47;18.60;65.03
78611;SHT30;67932;50.474;4.436;2023-06-26T07:55:14;18.77;64.13
78611;SHT30;67932;50.474;4.436;2023-06-26T07:57:40;19.01;62.92
78611;SHT30;67932;50.474;4.436;2023-06-26T08:00:07;19.05;63.20
78611;SHT30;67932;50.474;4.436;2023-06-26T08:02:34;18.97;63.54
78611;SHT30;67932;50.474;4.436;2023-06-26T08:05:00;19.22;63.25
78611;SHT30;67932;50.474;4.436;2023-06-26T08:07:32;19.25;62.44
78611;SHT30;67932;50.474;4.436;2023-06-26T08:09:58;19.19;62.97
78611;SHT30;67932;50.474;4.436;2023-06-26T08:12:25;19.19;62.14
78611;SHT30;67932;50.474;4.436;2023-06-26T08:14:52;19.52;60.62
78611;SHT30;67932;50.474;4.436;2023-06-26T08:17:18;19.51;60.70
78611;SHT30;67932;50.474;4.436;2023-06-26T08:19:44;19.42;60.58
78611;SHT30;67932;50.474;4.436;2023-06-26T08:22:10;19.57;60.18
78611;SHT30;67932;50.474;4.436;2023-06-26T08:24:36;19.17;61.56
78611;SHT30;67932;50.474;4.436;2023-06-26T08:27:03;19.39;60.58
78611;SHT30;67932;50.474;4.436;2023-06-26T08:29:29;19.45;60.65
78611;SHT30;67932;50.474;4.436;2023-06-26T08:31:56;19.52;60.69
78611;SHT30;67932;50.474;4.436;2023-06-26T08:34:22;19.80;59.53
78611;SHT30;67932;50.474;4.436;2023-06-26T08:36:48;19.90;59.70
78611;SHT30;67932;50.474;4.436;2023-06-26T08:39:14;19.72;60.44
78611;SHT30;67932;50.474;4.436;2023-06-26T08:41:41;19.55;61.14
78611;SHT30;67932;50.474;4.436;2023-06-26T08:44:08;19.83;60.67
78611;SHT30;67932;50.474;4.436;2023-06-26T08:46:34;19.49;61.02
78611;SHT30;67932;50.474;4.436;2023-06-26T08:49:18;19.75;60.11
78611;SHT30;67932;50.474;4.436;2023-06-26T08:51:52;19.73;60.64
78611;SHT30;67932;50.474;4.436;2023-06-26T08:54:27;19.55;61.22
78611;SHT30;67932;50.474;4.436;2023-06-26T08:56:55;19.61;61.10
78611;SHT30;67932;50.474;4.436;2023-06-26T08:59:22;19.59;60.82
78611;SHT30;67932;50.474;4.436;2023-06-26T09:01:50;19.66;58.58
78611;SHT30;67932;50.474;4.436;2023-06-26T09:04:17;19.66;60.00
78611;SHT30;67932;50.474;4.436;2023-06-26T09:10:10;20.09;57.75
78611;SHT30;67932;50.474;4.436;2023-06-26T09:12:37;20.10;56.10
78611;SHT30;67932;50.474;4.436;2023-06-26T09:15:05;20.08;56.74
78611;SHT30;67932;50.474;4.436;2023-06-26T09:17:39;20.13;56.98
78611;SHT30;67932;50.474;4.436;2023-06-26T09:20:08;20.20;57.11
78611;SHT30;67932;50.474;4.436;2023-06-26T09:22:40;20.47;54.90
78611;SHT30;67932;50.474;4.436;2023-06-26T09:25:07;20.20;55.77
78611;SHT30;67932;50.474;4.436;2023-06-26T09:27:34;20.51;55.11
78611;SHT30;67932;50.474;4.436;2023-06-26T09:30:05;20.58;53.55
78611;SHT30;67932;50.474;4.436;2023-06-26T09:32:35;20.41;53.97
78611;SHT30;67932;50.474;4.436;2023-06-26T09:35:06;20.64;52.05
78611;SHT30;67932;50.474;4.436;2023-06-26T09:37:39;20.56;53.94
78611;SHT30;67932;50.474;4.436;2023-06-26T09:40:15;20.56;53.69
78611;SHT30;67932;50.474;4.436;2023-06-26T09:43:12;20.29;54.35
78611;SHT30;67932;50.474;4.436;2023-06-26T09:45:43;20.40;53.91
78611;SHT30;67932;50.474;4.436;2023-06-26T09:48:14;20.68;53.61
78611;SHT30;67932;50.474;4.436;2023-06-26T09:50:42;20.76;53.73
78611;SHT30;67932;50.474;4.436;2023-06-26T09:57:13;21.09;53.42
78611;SHT30;67932;50.474;4.436;2023-06-26T10:00:03;21.27;53.30
78611;SHT30;67932;50.474;4.436;2023-06-26T10:02:31;20.99;52.83
78611;SHT30;67932;50.474;4.436;2023-06-26T10:04:57;21.07;52.50
78611;SHT30;67932;50.474;4.436;2023-06-26T10:07:25;21.18;52.74
78611;SHT30;67932;50.474;4.436;2023-06-26T10:09:54;21.28;52.04
78611;SHT30;67932;50.474;4.436;2023-06-26T10:12:29;21.28;51.57
78611;SHT30;67932;50.474;4.436;2023-06-26T10:15:00;21.05;50.92
78611;SHT30;67932;50.474;4.436;2023-06-26T10:17:34;20.85;51.46
78611;SHT30;67932;50.474;4.436;2023-06-26T10:20:03;20.90;50.99
78611;SHT30;67932;50.474;4.436;2023-06-26T10:22:33;20.99;50.86
78611;SHT30;67932;50.474;4.436;2023-06-26T10:25:04;21.01;50.27
78611;SHT30;67932;50.474;4.436;2023-06-26T10:27:35;21.11;51.02
78611;SHT30;67932;50.474;4.436;2023-06-26T10:43:15;21.53;49.52
78611;SHT30;67932;50.474;4.436;2023-06-26T10:45:46;21.59;48.04
78611;SHT30;67932;50.474;4.436;2023-06-26T10:48:16;21.76;49.39
78611;SHT30;67932;50.474;4.436;2023-06-26T10:50:42;21.75;47.90
78611;SHT30;67932;50.474;4.436;2023-06-26T10:53:15;22.13;46.83
78611;SHT30;67932;50.474;4.436;2023-06-26T10:55:51;22.09;47.57
78611;SHT30;67932;50.474;4.436;2023-06-26T10:58:29;22.12;48.08
78611;SHT30;67932;50.474;4.436;2023-06-26T11:03:39;21.75;48.34
78611;SHT30;67932;50.474;4.436;2023-06-26T11:06:13;21.52;48.94
78611;SHT30;67932;50.474;4.436;2023-06-26T11:09:23;21.66;48.41
78611;SHT30;67932;50.474;4.436;2023-06-26T11:14:21;21.53;47.81
78611;SHT30;67932;50.474;4.436;2023-06-26T11:16:48;21.46;49.11
78611;SHT30;67932;50.474;4.436;2023-06-26T11:19:18;21.66;49.71
78611;SHT30;67932;50.474;4.436;2023-06-26T11:21:45;21.89;49.87
78611;SHT30;67932;50.474;4.436;2023-06-26T11:24:12;21.73;49.66
78611;SHT30;67932;50.474;4.436;2023-06-26T11:26:43;21.52;49.63
78611;SHT30;67932;50.474;4.436;2023-06-26T11:29:11;21.61;49.14
78611;SHT30;67932;50.474;4.436;2023-06-26T11:31:40;21.99;47.19
78611;SHT30;67932;50.474;4.436;2023-06-26T11:34:12;21.45;46.75
78611;SHT30;67932;50.474;4.436;2023-06-26T11:36:40;21.66;47.88
78611;SHT30;67932;50.474;4.436;2023-06-26T11:39:08;21.96;47.86
78611;SHT30;67932;50.474;4.436;2023-06-26T11:41:37;22.06;46.62
78611;SHT30;67932;50.474;4.436;2023-06-26T11:44:05;21.92;46.10
78611;SHT30;67932;50.474;4.436;2023-06-26T11:46:33;21.49;46.23
78611;SHT30;67932;50.474;4.436;2023-06-26T11:49:04;21.65;45.94
78611;SHT30;67932;50.474;4.436;2023-06-26T11:51:30;21.56;46.90
78611;SHT30;67932;50.474;4.436;2023-06-26T11:53:56;22.70;44.15
78611;SHT30;67932;50.474;4.436;2023-06-26T11:56:23;22.60;44.41
78611;SHT30;67932;50.474;4.436;2023-06-26T11:59:07;22.23;45.64
78611;SHT30;67932;50.474;4.436;2023-06-26T12:01:42;22.70;43.53
78611;SHT30;67932;50.474;4.436;2023-06-26T12:04:14;22.81;43.28
78611;SHT30;67932;50.474;4.436;2023-06-26T12:06:45;22.70;43.94
78611;SHT30;67932;50.474;4.436;2023-06-26T12:09:13;22.77;43.58
78611;SHT30;67932;50.474;4.436;2023-06-26T12:11:42;23.01;40.75
78611;SHT30;67932;50.474;4.436;2023-06-26T12:14:09;23.07;41.77
78611;SHT30;67932;50.474;4.436;2023-06-26T12:16:36;22.77;41.77
78611;SHT30;67932;50.474;4.436;2023-06-26T12:19:06;22.78;40.47
78611;SHT30;67932;50.474;4.436;2023-06-26T12:24:17;22.77;42.36
78611;SHT30;67932;50.474;4.436;2023-06-26T12:26:46;23.55;41.45
78611;SHT30;67932;50.474;4.436;2023-06-26T12:29:14;22.74;42.85
78611;SHT30;67932;50.474;4.436;2023-06-26T12:31:46;22.63;43.37
78611;SHT30;67932;50.474;4.436;2023-06-26T12:34:19;22.50;44.13
78611;SHT30;67932;50.474;4.436;2023-06-26T12:36:47;21.96;44.84
78611;SHT30;67932;50.474;4.436;2023-06-26T12:39:19;22.24;44.50
78611;SHT30;67932;50.474;4.436;2023-06-26T12:41:57;23.41;41.16
78611;SHT30;67932;50.474;4.436;2023-06-26T12:44:29;24.46;39.99
78611;SHT30;67932;50.474;4.436;2023-06-26T12:46:58;24.17;39.70
78611;SHT30;67932;50.474;4.436;2023-06-26T12:49:34;23.83;40.70
78611;SHT30;67932;50.474;4.436;2023-06-26T12:52:02;23.56;40.29
78611;SHT30;67932;50.474;4.436;2023-06-26T12:54:28;24.53;39.68
78611;SHT30;67932;50.474;4.436;2023-06-26T12:56:55;24.87;38.14
78611;SHT30;67932;50.474;4.436;2023-06-26T12:59:22;23.95;40.24
78611;SHT30;67932;50.474;4.436;2023-06-26T13:01:48;23.46;41.22
78611;SHT30;67932;50.474;4.436;2023-06-26T13:04:15;23.29;41.65
78611;SHT30;67932;50.474;4.436;2023-06-26T13:06:42;23.05;41.69
78611;SHT30;67932;50.474;4.436;2023-06-26T13:09:08;23.83;40.75
78611;SHT30;67932;50.474;4.436;2023-06-26T13:11:36;24.80;38.07
78611;SHT30;67932;50.474;4.436;2023-06-26T13:14:02;24.43;38.01
78611;SHT30;67932;50.474;4.436;2023-06-26T13:16:29;25.42;37.44
78611;SHT30;67932;50.474;4.436;2023-06-26T13:18:57;24.19;39.04
78611;SHT30;67932;50.474;4.436;2023-06-26T13:21:24;25.43;38.15
78611;SHT30;67932;50.474;4.436;2023-06-26T13:23:50;24.23;40.87
78611;SHT30;67932;50.474;4.436;2023-06-26T13:26:16;24.80;38.35
78611;SHT30;67932;50.474;4.436;2023-06-26T13:28:43;26.99;35.11
78611;SHT30;67932;50.474;4.436;2023-06-26T13:31:09;27.82;33.50
78611;SHT30;67932;50.474;4.436;2023-06-26T13:33:35;26.40;35.38
78611;SHT30;67932;50.474;4.436;2023-06-26T13:36:01;25.42;36.24
78611;SHT30;67932;50.474;4.436;2023-06-26T13:38:32;23.80;40.54
78611;SHT30;67932;50.474;4.436;2023-06-26T13:40:59;23.35;41.03
78611;SHT30;67932;50.474;4.436;2023-06-26T13:43:27;23.45;41.18
78611;SHT30;67932;50.474;4.436;2023-06-26T13:45:54;23.25;41.53
78611;SHT30;67932;50.474;4.436;2023-06-26T13:48:21;24.06;40.10
78611;SHT30;67932;50.474;4.436;2023-06-26T13:50:48;23.77;39.93
78611;SHT30;67932;50.474;4.436;2023-06-26T13:53:14;23.14;39.61
78611;SHT30;67932;50.474;4.436;2023-06-26T13:55:41;23.56;39.62
78611;SHT30;67932;50.474;4.436;2023-06-26T13:58:08;23.02;39.65
78611;SHT30;67932;50.474;4.436;2023-06-26T14:00:36;22.60;39.03
78611;SHT30;67932;50.474;4.436;2023-06-26T14:03:03;22.70;39.32
78611;SHT30;67932;50.474;4.436;2023-06-26T14:05:30;24.36;36.50
78611;SHT30;67932;50.474;4.436;2023-06-26T14:07:58;23.58;38.90
78611;SHT30;67932;50.474;4.436;2023-06-26T14:10:24;23.53;38.98
78611;SHT30;67932;50.474;4.436;2023-06-26T14:12:51;24.33;37.35
78611;SHT30;67932;50.474;4.436;2023-06-26T14:15:17;24.67;37.31
78611;SHT30;67932;50.474;4.436;2023-06-26T14:17:45;24.14;38.57
78611;SHT30;67932;50.474;4.436;2023-06-26T14:20:11;23.77;38.17
78611;SHT30;67932;50.474;4.436;2023-06-26T14:22:41;25.38;36.09
78611;SHT30;67932;50.474;4.436;2023-06-26T14:25:08;25.49;35.37
78611;SHT30;67932;50.474;4.436;2023-06-26T14:27:36;24.09;37.77
78611;SHT30;67932;50.474;4.436;2023-06-26T14:30:03;23.83;38.46
78611;SHT30;67932;50.474;4.436;2023-06-26T14:32:30;23.69;38.41
78611;SHT30;67932;50.474;4.436;2023-06-26T14:34:57;24.07;37.89
78611;SHT30;67932;50.474;4.436;2023-06-26T14:37:24;24.23;37.49
78611;SHT30;67932;50.474;4.436;2023-06-26T14:39:51;23.37;39.41
78611;SHT30;67932;50.474;4.436;2023-06-26T14:42:18;23.35;39.08
78611;SHT30;67932;50.474;4.436;2023-06-26T14:44:44;23.05;40.78
78611;SHT30;67932;50.474;4.436;2023-06-26T14:47:13;22.68;41.69
78611;SHT30;67932;50.474;4.436;2023-06-26T14:49:40;22.83;41.00
78611;SHT30;67932;50.474;4.436;2023-06-26T14:52:07;22.68;42.23
78611;SHT30;67932;50.474;4.436;2023-06-26T14:54:34;22.68;42.29
78611;SHT30;67932;50.474;4.436;2023-06-26T14:57:06;22.84;41.15
78611;SHT30;67932;50.474;4.436;2023-06-26T14:59:32;23.93;39.53
78611;SHT30;67932;50.474;4.436;2023-06-26T15:01:58;23.19;40.35
78611;SHT30;67932;50.474;4.436;2023-06-26T15:04:25;23.96;38.65
78611;SHT30;67932;50.474;4.436;2023-06-26T15:06:52;25.24;36.33
78611;SHT30;67932;50.474;4.436;2023-06-26T15:09:18;25.46;36.29
78611;SHT30;67932;50.474;4.436;2023-06-26T15:11:44;26.23;34.61
78611;SHT30;67932;50.474;4.436;2023-06-26T15:14:10;25.90;33.95
78611;SHT30;67932;50.474;4.436;2023-06-26T15:16:37;25.12;35.05
78611;SHT30;67932;50.474;4.436;2023-06-26T15:19:03;25.25;35.68
78611;SHT30;67932;50.474;4.436;2023-06-26T15:21:29;23.96;37.19
78611;SHT30;67932;50.474;4.436;2023-06-26T15:23:55;25.05;35.84
78611;SHT30;67932;50.474;4.436;2023-06-26T15:26:22;25.26;35.69
78611;SHT30;67932;50.474;4.436;2023-06-26T15:28:48;25.92;34.60
78611;SHT30;67932;50.474;4.436;2023-06-26T15:31:17;25.69;34.71
78611;SHT30;67932;50.474;4.436;2023-06-26T15:33:44;26.61;32.80
78611;SHT30;67932;50.474;4.436;2023-06-26T15:36:11;27.26;31.93
78611;SHT30;67932;50.474;4.436;2023-06-26T15:38:37;26.94;32.42
78611;SHT30;67932;50.474;4.436;2023-06-26T15:41:03;26.24;32.99
78611;SHT30;67932;50.474;4.436;2023-06-26T15:43:30;25.94;33.08
78611;SHT30;67932;50.474;4.436;2023-06-26T15:45:57;26.44;32.89
78611;SHT30;67932;50.474;4.436;2023-06-26T15:48:23;25.42;34.42
78611;SHT30;67932;50.474;4.436;2023-06-26T15:50:51;25.50;34.08
78611;SHT30;67932;50.474;4.436;2023-06-26T15:53:17;24.51;34.64
78611;SHT30;67932;50.474;4.436;2023-06-26T15:55:45;24.47;35.22
78611;SHT30;67932;50.474;4.436;2023-06-26T15:58:12;24.03;35.65
78611;SHT30;67932;50.474;4.436;2023-06-26T16:00:39;23.62;36.27
78611;SHT30;67932;50.474;4.436;2023-06-26T16:03:05;23.39;37.14
78611;SHT30;67932;50.474;4.436;2023-06-26T16:05:31;23.55;37.15
78611;SHT30;67932;50.474;4.436;2023-06-26T16:07:57;23.32;37.34